sensor_id;sensor_type;location;lat;lon;timestamp;temperature;humidity
12254;DHT22;6189;52.526;13.390;2023-12-14T00:02:42;7.50;99.90
12254;DHT22;6189;52.526;13.390;2023-12-14T00:05:30;7.50;99.90
12254;DHT22;6189;52.526;13.390;2023-12-14T00:08:17;7.50;99.90
12254;DHT22;6189;52.526;13.390;2023-12-14T00:11:04;7.40;99.90
12254;DHT22;6189;52.526;13.390;2023-12-14T00:13:53;7.40;99.90
12254;DHT22;6189;52.526;13.390;2023-12-14T00:16:40;7.40;99.90
12254;DHT22;6189;52.526;13.390;2023-12-14T00:19:28;7.40;99.90
12254;DHT22;6189;52.526;13.390;2023-12-14T00:22:15;7.50;99.90
12254;DHT22;6189;52.526;13.390;2023-12-14T00:25:04;7.50;99.90
12254;DHT22;6189;52.526;13.390;2023-12-14T00:27:51;7.50;99.90
12254;DHT22;6189;52.526;13.390;2023-12-14T00:30:40;7.40;99.90
12254;DHT22;6189;52.526;13.390;2023-12-14T00:33:28;7.50;99.90
12254;DHT22;6189;52.526;13.390;2023-12-14T00:36:19;7.40;99.90
12254;DHT22;6189;52.526;13.390;2023-12-14T00:39:07;7.40;99.90
12254;DHT22;6189;52.526;13.390;2023-12-14T00:41:55;7.80;99.90
12254;DHT22;6189;52.526;13.390;2023-12-14T00:44:42;7.30;99.90
12254;DHT22;6189;52.526;13.390;2023-12-14T00:47:31;7.40;99.90
12254;DHT22;6189;52.526;13.390;2023-12-14T00:50:18;7.40;99.90
12254;DHT22;6189;52.526;13.390;2023-12-14T00:53:05;7.30;99.90
12254;DHT22;6189;52.526;13.390;2023-12-14T00:55:53;7.40;99.90
12254;DHT22;6189;52.526;13.390;2023-12-14T00:58:40;7.30;99.90
12254;DHT22;6189;52.526;13.390;2023-12-14T01:01:27;7.30;99.90
12254;DHT22;6189;52.526;13.390;2023-12-14T01:04:15;7.10;99.90
12254;DHT22;6189;52.526;13.390;2023-12-14T01:07:05;7.20;99.90
12254;DHT22;6189;52.526;13.390;2023-12-14T01:09:52;7.30;99.90
12254;DHT22;6189;52.526;13.390;2023-12-14T01:12:39;7.30;99.90
12254;DHT22;6189;52.526;13.390;2023-12-14T01:15:26;7.30;99.90
12254;DHT22;6189;52.526;13.390;2023-12-14T01:18:13;7.30;99.90
12254;DHT22;6189;52.526;13.390;2023-12-14T01:21:02;7.30;99.90
12254;DHT22;6189;52.526;13.390;2023-12-14T01:23:49;7.30;99.90
12254;DHT22;6189;52.526;13.390;2023-12-14T01:26:37;7.30;99.90
12254;DHT22;6189;52.526;13.390;2023-12-14T01:29:24;7.30;99.90
12254;DHT22;6189;52.526;13.390;2023-12-14T01:32:11;7.30;99.90
12254;DHT22;6189;52.526;13.390;2023-12-14T01:34:58;7.30;99.90
12254;DHT22;6189;52.526;13.390;2023-12-14T01:37:47;7.30;99.90
12254;DHT22;6189;52.526;13.390;2023-12-14T01:40:34;7.20;99.90
12254;DHT22;6189;52.526;13.390;2023-12-14T01:43:21;7.20;99.90
12254;DHT22;6189;52.526;13.390;2023-12-14T01:46:09;7.10;99.90
12254;DHT22;6189;52.526;13.390;2023-12-14T01:48:56;7.10;99.90
12254;DHT22;6189;52.526;13.390;2023-12-14T01:51:43;7.10;99.90
12254;DHT22;6189;52.526;13.390;2023-12-14T01:54:33;7.10;99.90
12254;DHT22;6189;52.526;13.390;2023-12-14T01:57:20;7.10;99.90
12254;DHT22;6189;52.526;13.390;2023-12-14T02:00:07;7.10;99.90
12254;DHT22;6189;52.526;13.390;2023-12-14T02:03:00;7.10;99.90
12254;DHT22;6189;52.526;13.390;2023-12-14T02:05:47;7.30;99.90
12254;DHT22;6189;52.526;13.390;2023-12-14T02:08:34;6.90;99.90
12254;DHT22;6189;52.526;13.390;2023-12-14T02:11:23;6.90;99.90
12254;DHT22;6189;52.526;13.390;2023-12-14T02:14:11;6.90;99.90
12254;DHT22;6189;52.526;13.390;2023-12-14T02:16:58;7.00;99.90
12254;DHT22;6189;52.526;13.390;2023-12-14T02:19:46;7.00;99.90
12254;DHT22;6189;52.526;13.390;2023-12-14T02:22:35;7.00;99.90
12254;DHT22;6189;52.526;13.390;2023-12-14T02:25:23;7.00;99.90
12254;DHT22;6189;52.526;13.390;2023-12-14T02:28:10;6.90;99.90
12254;DHT22;6189;52.526;13.390;2023-12-14T02:30:57;6.90;99.90
12254;DHT22;6189;52.526;13.390;2023-12-14T02:33:44;6.90;99.90
12254;DHT22;6189;52.526;13.390;2023-12-14T02:36:31;6.90;99.90
12254;DHT22;6189;52.526;13.390;2023-12-14T02:39:20;7.00;99.90
12254;DHT22;6189;52.526;13.390;2023-12-14T02:42:07;6.90;99.90
12254;DHT22;6189;52.526;13.390;2023-12-14T02:44:55;6.90;99.90
12254;DHT22;6189;52.526;13.390;2023-12-14T02:47:42;6.90;99.90
12254;DHT22;6189;52.526;13.390;2023-12-14T02:50:30;6.90;99.90
12254;DHT22;6189;52.526;13.390;2023-12-14T02:53:17;6.90;99.90
12254;DHT22;6189;52.526;13.390;2023-12-14T02:56:06;6.80;99.90
12254;DHT22;6189;52.526;13.390;2023-12-14T02:58:53;6.70;99.90
12254;DHT22;6189;52.526;13.390;2023-12-14T03:01:40;6.80;99.90
12254;DHT22;6189;52.526;13.390;2023-12-14T03:04:28;6.70;99.90
12254;DHT22;6189;52.526;13.390;2023-12-14T03:07:15;6.70;99.90
12254;DHT22;6189;52.526;13.390;2023-12-14T03:10:02;6.80;99.90
12254;DHT22;6189;52.526;13.390;2023-12-14T03:12:52;6.90;99.90
12254;DHT22;6189;52.526;13.390;2023-12-14T03:15:39;6.90;99.90
12254;DHT22;6189;52.526;13.390;2023-12-14T03:18:29;6.90;99.90
12254;DHT22;6189;52.526;13.390;2023-12-14T03:21:16;6.70;99.90
12254;DHT22;6189;52.526;13.390;2023-12-14T03:24:03;6.70;99.90
12254;DHT22;6189;52.526;13.390;2023-12-14T03:26:50;6.70;99.90
12254;DHT22;6189;52.526;13.390;2023-12-14T03:29:39;6.80;99.90
12254;DHT22;6189;52.526;13.390;2023-12-14T03:32:26;6.90;99.90
12254;DHT22;6189;52.526;13.390;2023-12-14T03:35:14;6.80;99.90
12254;DHT22;6189;52.526;13.390;2023-12-14T03:38:01;6.90;99.90
12254;DHT22;6189;52.526;13.390;2023-12-14T03:40:48;6.90;99.90
12254;DHT22;6189;52.526;13.390;2023-12-14T03:43:35;6.90;99.90
12254;DHT22;6189;52.526;13.390;2023-12-14T03:46:24;6.90;99.90
12254;DHT22;6189;52.526;13.390;2023-12-14T03:49:11;6.90;99.90
12254;DHT22;6189;52.526;13.390;2023-12-14T03:51:58;6.90;99.90
12254;DHT22;6189;52.526;13.390;2023-12-14T03:54:45;6.90;99.90
12254;DHT22;6189;52.526;13.390;2023-12-14T03:57:33;6.90;99.90
12254;DHT22;6189;52.526;13.390;2023-12-14T04:00:20;6.80;99.90
12254;DHT22;6189;52.526;13.390;2023-12-14T04:03:09;6.80;99.90
12254;DHT22;6189;52.526;13.390;2023-12-14T04:05:56;6.80;99.90
12254;DHT22;6189;52.526;13.390;2023-12-14T04:08:43;6.80;99.90
12254;DHT22;6189;52.526;13.390;2023-12-14T04:11:32;6.70;99.90
12254;DHT22;6189;52.526;13.390;2023-12-14T04:14:19;6.80;99.90
12254;DHT22;6189;52.526;13.390;2023-12-14T04:17:06;6.70;99.90
12254;DHT22;6189;52.526;13.390;2023-12-14T04:19:55;6.70;99.90
12254;DHT22;6189;52.526;13.390;2023-12-14T04:22:42;6.70;99.90
12254;DHT22;6189;52.526;13.390;2023-12-14T04:25:30;6.80;99.90
12254;DHT22;6189;52.526;13.390;2023-12-14T04:28:17;6.80;99.90
12254;DHT22;6189;52.526;13.390;2023-12-14T04:31:04;6.90;99.90
12254;DHT22;6189;52.526;13.390;2023-12-14T04:33:51;6.90;99.90
12254;DHT22;6189;52.526;13.390;2023-12-14T04:36:40;6.90;99.90
12254;DHT22;6189;52.526;13.390;2023-12-14T04:39:27;6.90;99.90
12254;DHT22;6189;52.526;13.390;2023-12-14T04:42:14;6.80;99.90
12254;DHT22;6189;52.526;13.390;2023-12-14T04:45:01;6.80;99.90
12254;DHT22;6189;52.526;13.390;2023-12-14T04:47:49;6.80;99.90
12254;DHT22;6189;52.526;13.390;2023-12-14T04:50:36;6.80;99.90
12254;DHT22;6189;52.526;13.390;2023-12-14T04:53:24;6.80;99.90
12254;DHT22;6189;52.526;13.390;2023-12-14T04:56:11;6.80;99.90
12254;DHT22;6189;52.526;13.390;2023-12-14T04:58:59;6.70;99.90
12254;DHT22;6189;52.526;13.390;2023-12-14T05:01:47;6.80;99.90
12254;DHT22;6189;52.526;13.390;2023-12-14T05:04:34;6.70;99.90
12254;DHT22;6189;52.526;13.390;2023-12-14T05:07:21;7.00;99.90
12254;DHT22;6189;52.526;13.390;2023-12-14T05:10:11;6.90;99.90
12254;DHT22;6189;52.526;13.390;2023-12-14T05:12:58;6.70;99.90
12254;DHT22;6189;52.526;13.390;2023-12-14T05:15:45;6.80;99.90
12254;DHT22;6189;52.526;13.390;2023-12-14T05:18:32;6.90;99.90
12254;DHT22;6189;52.526;13.390;2023-12-14T05:21:19;6.80;99.90
12254;DHT22;6189;52.526;13.390;2023-12-14T05:24:06;6.80;99.90
12254;DHT22;6189;52.526;13.390;2023-12-14T05:26:55;6.80;99.90
12254;DHT22;6189;52.526;13.390;2023-12-14T05:29:42;6.70;99.90
12254;DHT22;6189;52.526;13.390;2023-12-14T05:32:29;6.80;99.90
12254;DHT22;6189;52.526;13.390;2023-12-14T05:35:17;6.80;99.90
12254;DHT22;6189;52.526;13.390;2023-12-14T05:38:04;6.70;99.90
12254;DHT22;6189;52.526;13.390;2023-12-14T05:40:51;6.70;99.90
12254;DHT22;6189;52.526;13.390;2023-12-14T05:43:39;6.80;99.90
12254;DHT22;6189;52.526;13.390;2023-12-14T05:46:27;6.80;99.90
12254;DHT22;6189;52.526;13.390;2023-12-14T05:49:14;6.80;99.90
12254;DHT22;6189;52.526;13.390;2023-12-14T05:52:01;6.80;99.90
12254;DHT22;6189;52.526;13.390;2023-12-14T05:54:48;6.80;99.90
12254;DHT22;6189;52.526;13.390;2023-12-14T05:57:35;6.90;99.90
12254;DHT22;6189;52.526;13.390;2023-12-14T06:00:24;6.70;99.90
12254;DHT22;6189;52.526;13.390;2023-12-14T06:03:11;6.70;99.90
12254;DHT22;6189;52.526;13.390;2023-12-14T06:05:58;6.70;99.90
12254;DHT22;6189;52.526;13.390;2023-12-14T06:08:45;6.80;99.90
12254;DHT22;6189;52.526;13.390;2023-12-14T06:11:32;6.90;99.90
12254;DHT22;6189;52.526;13.390;2023-12-14T06:14:19;6.80;99.90
12254;DHT22;6189;52.526;13.390;2023-12-14T06:17:08;6.80;99.90
12254;DHT22;6189;52.526;13.390;2023-12-14T06:19:55;6.80;99.90
12254;DHT22;6189;52.526;13.390;2023-12-14T06:22:43;6.80;99.90
12254;DHT22;6189;52.526;13.390;2023-12-14T06:25:30;6.80;99.90
12254;DHT22;6189;52.526;13.390;2023-12-14T06:28:17;6.90;99.90
12254;DHT22;6189;52.526;13.390;2023-12-14T06:31:04;6.90;99.90
12254;DHT22;6189;52.526;13.390;2023-12-14T06:33:53;6.90;99.90
12254;DHT22;6189;52.526;13.390;2023-12-14T06:36:41;6.90;99.90
12254;DHT22;6189;52.526;13.390;2023-12-14T06:39:28;7.20;99.90
12254;DHT22;6189;52.526;13.390;2023-12-14T06:42:16;6.90;99.90
12254;DHT22;6189;52.526;13.390;2023-12-14T06:45:03;6.90;99.90
12254;DHT22;6189;52.526;13.390;2023-12-14T06:47:51;6.90;99.90
12254;DHT22;6189;52.526;13.390;2023-12-14T06:50:39;6.80;99.90
12254;DHT22;6189;52.526;13.390;2023-12-14T06:53:26;6.90;99.90
12254;DHT22;6189;52.526;13.390;2023-12-14T06:56:15;6.90;99.90
12254;DHT22;6189;52.526;13.390;2023-12-14T06:59:02;6.80;99.90
12254;DHT22;6189;52.526;13.390;2023-12-14T07:01:49;6.90;99.90
12254;DHT22;6189;52.526;13.390;2023-12-14T07:04:36;6.90;99.90
12254;DHT22;6189;52.526;13.390;2023-12-14T07:07:25;6.90;99.90
12254;DHT22;6189;52.526;13.390;2023-12-14T07:10:12;6.80;99.90
12254;DHT22;6189;52.526;13.390;2023-12-14T07:13:00;6.80;99.90
12254;DHT22;6189;52.526;13.390;2023-12-14T07:15:47;6.80;99.90
12254;DHT22;6189;52.526;13.390;2023-12-14T07:18:34;7.00;99.90
12254;DHT22;6189;52.526;13.390;2023-12-14T07:21:21;7.10;99.90
12254;DHT22;6189;52.526;13.390;2023-12-14T07:24:10;7.20;99.90
12254;DHT22;6189;52.526;13.390;2023-12-14T07:26:58;7.30;99.90
12254;DHT22;6189;52.526;13.390;2023-12-14T07:29:45;7.40;99.90
12254;DHT22;6189;52.526;13.390;2023-12-14T07:32:32;7.60;99.90
12254;DHT22;6189;52.526;13.390;2023-12-14T07:35:19;7.60;99.90
12254;DHT22;6189;52.526;13.390;2023-12-14T07:38:06;7.60;99.90
12254;DHT22;6189;52.526;13.390;2023-12-14T07:40:55;7.60;99.90
12254;DHT22;6189;52.526;13.390;2023-12-14T07:43:42;7.70;99.90
12254;DHT22;6189;52.526;13.390;2023-12-14T07:46:29;8.00;99.90
12254;DHT22;6189;52.526;13.390;2023-12-14T07:49:16;7.70;99.90
12254;DHT22;6189;52.526;13.390;2023-12-14T07:52:06;7.70;99.90
12254;DHT22;6189;52.526;13.390;2023-12-14T07:54:53;7.60;99.90
12254;DHT22;6189;52.526;13.390;2023-12-14T07:57:42;7.70;99.90
12254;DHT22;6189;52.526;13.390;2023-12-14T08:00:29;7.70;99.90
12254;DHT22;6189;52.526;13.390;2023-12-14T08:03:16;7.80;99.90
12254;DHT22;6189;52.526;13.390;2023-12-14T08:06:03;7.70;99.90
12254;DHT22;6189;52.526;13.390;2023-12-14T08:08:50;7.70;99.90
12254;DHT22;6189;52.526;13.390;2023-12-14T08:11:37;7.60;99.90
12254;DHT22;6189;52.526;13.390;2023-12-14T08:14:26;7.70;99.90
12254;DHT22;6189;52.526;13.390;2023-12-14T08:17:13;7.50;99.90
12254;DHT22;6189;52.526;13.390;2023-12-14T08:20:00;7.50;99.90
12254;DHT22;6189;52.526;13.390;2023-12-14T08:22:50;7.50;99.90
12254;DHT22;6189;52.526;13.390;2023-12-14T08:25:37;7.60;99.90
12254;DHT22;6189;52.526;13.390;2023-12-14T08:28:25;7.60;99.90
12254;DHT22;6189;52.526;13.390;2023-12-14T08:31:14;7.60;99.90
12254;DHT22;6189;52.526;13.390;2023-12-14T08:34:01;7.50;99.90
12254;DHT22;6189;52.526;13.390;2023-12-14T08:36:50;7.50;99.90
12254;DHT22;6189;52.526;13.390;2023-12-14T08:39:37;7.50;99.90
12254;DHT22;6189;52.526;13.390;2023-12-14T08:42:24;7.50;99.90
12254;DHT22;6189;52.526;13.390;2023-12-14T08:45:11;7.60;99.90
12254;DHT22;6189;52.526;13.390;2023-12-14T08:48:00;7.50;99.90
12254;DHT22;6189;52.526;13.390;2023-12-14T08:50:47;7.60;99.90
12254;DHT22;6189;52.526;13.390;2023-12-14T08:53:34;7.60;99.90
12254;DHT22;6189;52.526;13.390;2023-12-14T08:56:21;7.60;99.90
12254;DHT22;6189;52.526;13.390;2023-12-14T08:59:08;7.50;99.90
12254;DHT22;6189;52.526;13.390;2023-12-14T09:01:57;7.40;99.90
12254;DHT22;6189;52.526;13.390;2023-12-14T09:04:45;7.40;99.90
12254;DHT22;6189;52.526;13.390;2023-12-14T09:07:32;7.50;99.90
12254;DHT22;6189;52.526;13.390;2023-12-14T09:10:20;7.40;99.90
12254;DHT22;6189;52.526;13.390;2023-12-14T09:13:07;7.40;99.90
12254;DHT22;6189;52.526;13.390;2023-12-14T09:15:55;7.30;99.90
12254;DHT22;6189;52.526;13.390;2023-12-14T09:18:42;7.20;99.90
12254;DHT22;6189;52.526;13.390;2023-12-14T09:21:31;7.20;99.90
12254;DHT22;6189;52.526;13.390;2023-12-14T09:24:18;7.30;99.90
12254;DHT22;6189;52.526;13.390;2023-12-14T09:27:05;7.30;99.90
12254;DHT22;6189;52.526;13.390;2023-12-14T09:29:52;7.30;99.90
12254;DHT22;6189;52.526;13.390;2023-12-14T09:32:39;7.20;99.90
12254;DHT22;6189;52.526;13.390;2023-12-14T09:35:26;7.20;99.90
12254;DHT22;6189;52.526;13.390;2023-12-14T09:38:15;7.20;99.90
12254;DHT22;6189;52.526;13.390;2023-12-14T09:41:05;7.20;99.90
12254;DHT22;6189;52.526;13.390;2023-12-14T09:43:53;7.20;99.90
12254;DHT22;6189;52.526;13.390;2023-12-14T09:46:41;7.20;99.90
12254;DHT22;6189;52.526;13.390;2023-12-14T09:49:34;7.20;99.90
12254;DHT22;6189;52.526;13.390;2023-12-14T09:52:22;7.20;99.90
12254;DHT22;6189;52.526;13.390;2023-12-14T09:55:11;7.10;99.90
12254;DHT22;6189;52.526;13.390;2023-12-14T09:57:58;7.10;99.90
12254;DHT22;6189;52.526;13.390;2023-12-14T10:00:48;7.10;99.90
12254;DHT22;6189;52.526;13.390;2023-12-14T10:03:35;7.10;99.90
12254;DHT22;6189;52.526;13.390;2023-12-14T10:06:23;7.40;99.90
12254;DHT22;6189;52.526;13.390;2023-12-14T10:09:10;7.20;99.90
12254;DHT22;6189;52.526;13.390;2023-12-14T10:12:03;7.20;99.90
12254;DHT22;6189;52.526;13.390;2023-12-14T10:14:59;7.30;99.90
12254;DHT22;6189;52.526;13.390;2023-12-14T10:17:47;7.30;99.90
12254;DHT22;6189;52.526;13.390;2023-12-14T10:20:39;7.40;99.90
12254;DHT22;6189;52.526;13.390;2023-12-14T10:23:27;7.40;99.90
12254;DHT22;6189;52.526;13.390;2023-12-14T10:26:15;7.40;99.90
12254;DHT22;6189;52.526;13.390;2023-12-14T10:29:04;7.40;99.90
12254;DHT22;6189;52.526;13.390;2023-12-14T10:31:52;7.50;99.90
12254;DHT22;6189;52.526;13.390;2023-12-14T10:34:40;7.50;99.90
12254;DHT22;6189;52.526;13.390;2023-12-14T10:37:28;7.50;99.90
12254;DHT22;6189;52.526;13.390;2023-12-14T10:40:16;7.50;99.90
12254;DHT22;6189;52.526;13.390;2023-12-14T10:43:04;7.50;99.90
12254;DHT22;6189;52.526;13.390;2023-12-14T10:45:53;7.50;99.90
12254;DHT22;6189;52.526;13.390;2023-12-14T10:48:40;7.50;99.90
12254;DHT22;6189;52.526;13.390;2023-12-14T10:51:29;7.50;99.90
12254;DHT22;6189;52.526;13.390;2023-12-14T10:54:17;7.50;99.90
12254;DHT22;6189;52.526;13.390;2023-12-14T10:57:05;7.50;99.90
12254;DHT22;6189;52.526;13.390;2023-12-14T10:59:57;7.50;99.90
12254;DHT22;6189;52.526;13.390;2023-12-14T11:02:46;7.50;99.90
12254;DHT22;6189;52.526;13.390;2023-12-14T11:05:33;7.50;99.90
12254;DHT22;6189;52.526;13.390;2023-12-14T11:08:22;7.50;99.90
12254;DHT22;6189;52.526;13.390;2023-12-14T11:11:09;7.50;99.90
12254;DHT22;6189;52.526;13.390;2023-12-14T11:13:58;7.50;99.90
12254;DHT22;6189;52.526;13.390;2023-12-14T11:16:45;7.60;99.90
12254;DHT22;6189;52.526;13.390;2023-12-14T11:19:36;7.60;99.90
12254;DHT22;6189;52.526;13.390;2023-12-14T11:22:27;7.60;99.90
12254;DHT22;6189;52.526;13.390;2023-12-14T11:25:15;7.70;99.90
12254;DHT22;6189;52.526;13.390;2023-12-14T11:28:03;7.60;99.90
12254;DHT22;6189;52.526;13.390;2023-12-14T11:30:52;7.60;99.90
12254;DHT22;6189;52.526;13.390;2023-12-14T11:33:39;7.60;99.90
12254;DHT22;6189;52.526;13.390;2023-12-14T11:36:27;7.60;99.90
12254;DHT22;6189;52.526;13.390;2023-12-14T11:39:14;7.60;99.90
12254;DHT22;6189;52.526;13.390;2023-12-14T11:42:02;7.50;99.90
12254;DHT22;6189;52.526;13.390;2023-12-14T11:44:49;7.50;99.90
12254;DHT22;6189;52.526;13.390;2023-12-14T11:47:37;7.50;99.90
12254;DHT22;6189;52.526;13.390;2023-12-14T11:50:24;7.50;99.90
12254;DHT22;6189;52.526;13.390;2023-12-14T11:53:13;7.70;99.90
12254;DHT22;6189;52.526;13.390;2023-12-14T11:56:00;7.80;99.90
12254;DHT22;6189;52.526;13.390;2023-12-14T11:58:48;7.60;99.90
12254;DHT22;6189;52.526;13.390;2023-12-14T12:01:35;7.60;99.90
12254;DHT22;6189;52.526;13.390;2023-12-14T12:04:23;7.60;99.90
12254;DHT22;6189;52.526;13.390;2023-12-14T12:07:10;7.50;99.90
12254;DHT22;6189;52.526;13.390;2023-12-14T12:09:59;7.60;99.90
12254;DHT22;6189;52.526;13.390;2023-12-14T12:12:48;7.50;99.90
12254;DHT22;6189;52.526;13.390;2023-12-14T12:15:35;7.50;99.90
12254;DHT22;6189;52.526;13.390;2023-12-14T12:18:23;7.50;99.90
12254;DHT22;6189;52.526;13.390;2023-12-14T12:21:11;7.50;99.90
12254;DHT22;6189;52.526;13.390;2023-12-14T12:23:59;7.50;99.90
12254;DHT22;6189;52.526;13.390;2023-12-14T12:26:47;7.50;99.90
12254;DHT22;6189;52.526;13.390;2023-12-14T12:29:34;7.50;99.90
12254;DHT22;6189;52.526;13.390;2023-12-14T12:32:21;7.40;99.90
12254;DHT22;6189;52.526;13.390;2023-12-14T12:35:09;7.50;99.90
12254;DHT22;6189;52.526;13.390;2023-12-14T12:37:56;7.50;99.90
12254;DHT22;6189;52.526;13.390;2023-12-14T12:40:43;7.40;99.90
12254;DHT22;6189;52.526;13.390;2023-12-14T12:43:32;7.50;99.90
12254;DHT22;6189;52.526;13.390;2023-12-14T12:46:20;7.50;99.90
12254;DHT22;6189;52.526;13.390;2023-12-14T12:49:07;7.60;99.90
12254;DHT22;6189;52.526;13.390;2023-12-14T12:51:54;7.60;99.90
12254;DHT22;6189;52.526;13.390;2023-12-14T12:54:41;7.60;99.90
12254;DHT22;6189;52.526;13.390;2023-12-14T12:57:29;7.60;99.90
12254;DHT22;6189;52.526;13.390;2023-12-14T13:00:18;7.80;99.90
12254;DHT22;6189;52.526;13.390;2023-12-14T13:03:05;7.60;99.90
12254;DHT22;6189;52.526;13.390;2023-12-14T13:05:52;7.60;99.90
12254;DHT22;6189;52.526;13.390;2023-12-14T13:08:40;7.60;99.90
12254;DHT22;6189;52.526;13.390;2023-12-14T13:11:28;7.60;99.90
12254;DHT22;6189;52.526;13.390;2023-12-14T13:14:16;7.60;99.90
12254;DHT22;6189;52.526;13.390;2023-12-14T13:17:05;7.60;99.90
12254;DHT22;6189;52.526;13.390;2023-12-14T13:19:52;7.60;99.90
12254;DHT22;6189;52.526;13.390;2023-12-14T13:22:40;7.60;99.90
12254;DHT22;6189;52.526;13.390;2023-12-14T13:25:27;7.50;99.90
12254;DHT22;6189;52.526;13.390;2023-12-14T13:28:14;7.60;99.90
12254;DHT22;6189;52.526;13.390;2023-12-14T13:31:01;7.60;99.90
12254;DHT22;6189;52.526;13.390;2023-12-14T13:33:50;7.60;99.90
12254;DHT22;6189;52.526;13.390;2023-12-14T13:36:38;7.60;99.90
12254;DHT22;6189;52.526;13.390;2023-12-14T13:39:26;7.60;99.90
12254;DHT22;6189;52.526;13.390;2023-12-14T13:42:13;7.60;99.90
12254;DHT22;6189;52.526;13.390;2023-12-14T13:45:01;7.50;99.90
12254;DHT22;6189;52.526;13.390;2023-12-14T13:47:48;7.50;99.90
12254;DHT22;6189;52.526;13.390;2023-12-14T13:50:38;7.50;99.90
12254;DHT22;6189;52.526;13.390;2023-12-14T13:53:26;7.50;99.90
12254;DHT22;6189;52.526;13.390;2023-12-14T13:56:13;7.50;99.90
12254;DHT22;6189;52.526;13.390;2023-12-14T13:59:01;7.50;99.90
12254;DHT22;6189;52.526;13.390;2023-12-14T14:01:48;7.40;99.90
12254;DHT22;6189;52.526;13.390;2023-12-14T14:04:36;7.40;99.90
12254;DHT22;6189;52.526;13.390;2023-12-14T14:07:24;7.40;99.90
12254;DHT22;6189;52.526;13.390;2023-12-14T14:10:12;7.40;99.90
12254;DHT22;6189;52.526;13.390;2023-12-14T14:12:59;7.40;99.90
12254;DHT22;6189;52.526;13.390;2023-12-14T14:15:46;7.40;99.90
12254;DHT22;6189;52.526;13.390;2023-12-14T14:18:34;7.40;99.90
12254;DHT22;6189;52.526;13.390;2023-12-14T14:21:21;7.40;99.90
12254;DHT22;6189;52.526;13.390;2023-12-14T14:24:10;7.30;99.90
12254;DHT22;6189;52.526;13.390;2023-12-14T14:26:58;7.50;99.90
12254;DHT22;6189;52.526;13.390;2023-12-14T14:29:45;7.40;99.90
12254;DHT22;6189;52.526;13.390;2023-12-14T14:32:32;7.40;99.90
12254;DHT22;6189;52.526;13.390;2023-12-14T14:35:21;7.40;99.90
12254;DHT22;6189;52.526;13.390;2023-12-14T14:38:09;7.30;99.90
12254;DHT22;6189;52.526;13.390;2023-12-14T14:40:58;7.30;99.90
12254;DHT22;6189;52.526;13.390;2023-12-14T14:43:45;7.30;99.90
12254;DHT22;6189;52.526;13.390;2023-12-14T14:46:33;7.30;99.90
12254;DHT22;6189;52.526;13.390;2023-12-14T14:49:20;7.40;99.90
12254;DHT22;6189;52.526;13.390;2023-12-14T14:52:07;7.40;99.90
12254;DHT22;6189;52.526;13.390;2023-12-14T14:54:54;7.30;99.90
12254;DHT22;6189;52.526;13.390;2023-12-14T14:57:43;7.30;99.90
12254;DHT22;6189;52.526;13.390;2023-12-14T15:00:30;7.30;99.90
12254;DHT22;6189;52.526;13.390;2023-12-14T15:03:24;7.30;99.90
12254;DHT22;6189;52.526;13.390;2023-12-14T15:06:11;7.30;99.90
12254;DHT22;6189;52.526;13.390;2023-12-14T15:08:58;7.30;99.90
12254;DHT22;6189;52.526;13.390;2023-12-14T15:11:45;7.40;99.90
12254;DHT22;6189;52.526;13.390;2023-12-14T15:14:34;7.40;99.90
12254;DHT22;6189;52.526;13.390;2023-12-14T15:17:21;7.40;99.90
12254;DHT22;6189;52.526;13.390;2023-12-14T15:20:08;7.40;99.90
12254;DHT22;6189;52.526;13.390;2023-12-14T15:22:56;7.40;99.90
12254;DHT22;6189;52.526;13.390;2023-12-14T15:25:43;7.30;99.90
12254;DHT22;6189;52.526;13.390;2023-12-14T15:28:30;7.40;99.90
12254;DHT22;6189;52.526;13.390;2023-12-14T15:31:19;7.40;99.90
12254;DHT22;6189;52.526;13.390;2023-12-14T15:34:07;7.30;99.90
12254;DHT22;6189;52.526;13.390;2023-12-14T15:36:54;7.30;99.90
12254;DHT22;6189;52.526;13.390;2023-12-14T15:39:41;7.30;99.90
12254;DHT22;6189;52.526;13.390;2023-12-14T15:42:34;7.30;99.90
12254;DHT22;6189;52.526;13.390;2023-12-14T15:45:21;7.30;99.90
12254;DHT22;6189;52.526;13.390;2023-12-14T15:48:09;7.30;99.90
12254;DHT22;6189;52.526;13.390;2023-12-14T15:50:57;7.30;99.90
12254;DHT22;6189;52.526;13.390;2023-12-14T15:53:44;7.30;99.90
12254;DHT22;6189;52.526;13.390;2023-12-14T15:56:32;7.30;99.90
12254;DHT22;6189;52.526;13.390;2023-12-14T15:59:21;7.30;99.90
12254;DHT22;6189;52.526;13.390;2023-12-14T16:02:08;7.30;99.90
12254;DHT22;6189;52.526;13.390;2023-12-14T16:04:58;7.30;99.90
12254;DHT22;6189;52.526;13.390;2023-12-14T16:07:47;7.30;99.90
12254;DHT22;6189;52.526;13.390;2023-12-14T16:10:34;7.30;99.90
12254;DHT22;6189;52.526;13.390;2023-12-14T16:13:22;7.30;99.90
12254;DHT22;6189;52.526;13.390;2023-12-14T16:16:09;7.30;99.90
12254;DHT22;6189;52.526;13.390;2023-12-14T16:18:56;7.30;99.90
12254;DHT22;6189;52.526;13.390;2023-12-14T16:21:45;7.40;99.90
12254;DHT22;6189;52.526;13.390;2023-12-14T16:24:32;7.40;99.90
12254;DHT22;6189;52.526;13.390;2023-12-14T16:27:19;7.40;99.90
12254;DHT22;6189;52.526;13.390;2023-12-14T16:30:07;7.30;99.90
12254;DHT22;6189;52.526;13.390;2023-12-14T16:32:55;7.30;99.90
12254;DHT22;6189;52.526;13.390;2023-12-14T16:35:42;7.30;99.90
12254;DHT22;6189;52.526;13.390;2023-12-14T16:38:32;7.30;99.90
12254;DHT22;6189;52.526;13.390;2023-12-14T16:41:19;7.30;99.90
12254;DHT22;6189;52.526;13.390;2023-12-14T16:44:06;7.30;99.90
12254;DHT22;6189;52.526;13.390;2023-12-14T16:46:54;7.30;99.90
12254;DHT22;6189;52.526;13.390;2023-12-14T16:49:41;7.30;99.90
12254;DHT22;6189;52.526;13.390;2023-12-14T16:52:28;7.40;99.90
12254;DHT22;6189;52.526;13.390;2023-12-14T16:55:17;7.40;99.90
12254;DHT22;6189;52.526;13.390;2023-12-14T16:58:04;7.30;99.90
12254;DHT22;6189;52.526;13.390;2023-12-14T17:00:53;7.30;99.90
12254;DHT22;6189;52.526;13.390;2023-12-14T17:03:40;7.30;99.90
12254;DHT22;6189;52.526;13.390;2023-12-14T17:06:27;7.30;99.90
12254;DHT22;6189;52.526;13.390;2023-12-14T17:09:14;7.20;99.90
12254;DHT22;6189;52.526;13.390;2023-12-14T17:12:03;7.20;99.90
12254;DHT22;6189;52.526;13.390;2023-12-14T17:14:50;7.20;99.90
12254;DHT22;6189;52.526;13.390;2023-12-14T17:17:37;7.40;99.90
12254;DHT22;6189;52.526;13.390;2023-12-14T17:20:25;7.10;99.90
12254;DHT22;6189;52.526;13.390;2023-12-14T17:23:12;7.10;99.90
12254;DHT22;6189;52.526;13.390;2023-12-14T17:25:59;7.10;99.90
12254;DHT22;6189;52.526;13.390;2023-12-14T17:28:48;7.40;99.90
12254;DHT22;6189;52.526;13.390;2023-12-14T17:31:35;7.10;99.90
12254;DHT22;6189;52.526;13.390;2023-12-14T17:34:24;7.10;99.90
12254;DHT22;6189;52.526;13.390;2023-12-14T17:37:12;7.10;99.90
12254;DHT22;6189;52.526;13.390;2023-12-14T17:40:01;7.10;99.90
12254;DHT22;6189;52.526;13.390;2023-12-14T17:42:48;7.00;99.90
12254;DHT22;6189;52.526;13.390;2023-12-14T17:45:37;7.00;99.90
12254;DHT22;6189;52.526;13.390;2023-12-14T17:48:24;6.90;99.90
12254;DHT22;6189;52.526;13.390;2023-12-14T17:51:11;6.90;99.90
12254;DHT22;6189;52.526;13.390;2023-12-14T17:53:58;6.90;99.90
12254;DHT22;6189;52.526;13.390;2023-12-14T17:56:46;6.90;99.90